createdAt,value
2017-08-25T00:01:44.007Z,79.64
2017-08-25T00:04:11.750Z,79.64
2017-08-25T00:06:39.147Z,79.76
2017-08-25T00:09:06.544Z,79.71
2017-08-25T00:11:33.987Z,79.71
2017-08-25T00:14:01.382Z,79.83
2017-08-25T00:16:28.778Z,80.07
2017-08-25T00:18:56.331Z,79.98
2017-08-25T00:21:23.723Z,80.03
2017-08-25T00:23:51.114Z,80.12
2017-08-25T00:26:18.786Z,80.31
2017-08-25T00:28:46.186Z,80.31
2017-08-25T00:31:13.578Z,80.27
2017-08-25T00:33:41.082Z,80.31
2017-08-25T00:36:08.487Z,80.35
2017-08-25T00:38:35.880Z,80.46
2017-08-25T00:41:03.304Z,80.53
2017-08-25T00:43:30.698Z,80.92
2017-08-25T00:45:58.095Z,81.19
2017-08-25T00:48:25.894Z,81.29
2017-08-25T00:50:53.290Z,81.30
2017-08-25T00:53:20.686Z,81.12
2017-08-25T00:55:48.090Z,81.16
2017-08-25T00:58:15.483Z,81.28
2017-08-25T01:00:42.878Z,81.40
2017-08-25T01:03:10.430Z,81.43
2017-08-25T01:05:37.831Z,81.47
2017-08-25T01:08:05.230Z,81.55
2017-08-25T01:10:32.775Z,81.81
2017-08-25T01:13:00.197Z,82.00
2017-08-25T01:15:27.582Z,81.95
2017-08-25T01:17:55.386Z,82.11
2017-08-25T01:20:22.785Z,82.11
2017-08-25T01:22:50.183Z,82.26
2017-08-25T01:25:17.686Z,82.50
2017-08-25T01:27:45.088Z,82.80
2017-08-25T01:30:12.483Z,82.84
2017-08-25T01:32:39.898Z,82.90
2017-08-25T01:35:07.294Z,82.92
2017-08-25T01:37:34.687Z,83.11
2017-08-25T01:40:02.094Z,83.12
2017-08-25T01:42:29.491Z,83.06
2017-08-25T01:44:56.882Z,82.94
2017-08-25T01:47:24.447Z,82.85
2017-08-25T01:49:51.825Z,83.04
2017-08-25T01:52:19.219Z,83.13
2017-08-25T01:54:46.638Z,83.04
2017-08-25T01:57:14.034Z,83.22
2017-08-25T01:59:41.438Z,83.48
2017-08-25T02:02:08.842Z,83.46
2017-08-25T02:04:36.243Z,83.47
2017-08-25T02:07:03.631Z,83.32
2017-08-25T02:09:31.180Z,83.24
2017-08-25T02:11:58.570Z,83.19
2017-08-25T02:14:25.966Z,83.43
2017-08-25T02:16:53.518Z,83.45
2017-08-25T02:19:20.911Z,83.70
2017-08-25T02:21:51.115Z,83.58
2017-08-25T02:24:18.682Z,83.52
2017-08-25T02:26:46.082Z,83.54
2017-08-25T02:29:13.491Z,83.71
2017-08-25T02:31:40.938Z,83.77
2017-08-25T02:34:08.332Z,83.87
2017-08-25T02:36:35.730Z,83.90
2017-08-25T02:39:03.284Z,83.94
2017-08-25T02:41:30.684Z,83.85
2017-08-25T02:43:58.078Z,83.94
2017-08-25T02:46:25.637Z,83.96
2017-08-25T02:48:53.026Z,84.04
2017-08-25T02:51:20.425Z,84.16
2017-08-25T02:53:47.976Z,84.10
2017-08-25T02:56:15.370Z,84.18
2017-08-25T02:58:42.779Z,84.16
2017-08-25T03:01:10.189Z,84.18
2017-08-25T03:03:37.583Z,84.27
2017-08-25T03:06:04.979Z,84.33
2017-08-25T03:08:32.527Z,84.29
2017-08-25T03:10:59.930Z,84.31
2017-08-25T03:13:27.322Z,84.46
2017-08-25T03:15:55.182Z,84.64
2017-08-25T03:18:22.578Z,84.83
2017-08-25T03:20:49.978Z,85.12
2017-08-25T03:23:17.558Z,85.05
2017-08-25T03:25:44.958Z,85.05
2017-08-25T03:28:12.350Z,85.00
2017-08-25T03:30:39.760Z,84.88
2017-08-25T03:33:07.168Z,84.99
2017-08-25T03:35:34.567Z,85.09
2017-08-25T03:38:02.115Z,85.13
2017-08-25T03:40:29.514Z,85.35
2017-08-25T03:42:56.910Z,85.52
2017-08-25T03:45:24.463Z,85.59
2017-08-25T03:47:51.866Z,85.75
2017-08-25T03:50:19.266Z,86.21
2017-08-25T03:52:46.821Z,86.98
2017-08-25T03:55:14.218Z,86.67
2017-08-25T03:57:41.623Z,86.64
2017-08-25T04:00:09.419Z,86.52
2017-08-25T04:02:36.819Z,86.43
2017-08-25T04:05:04.210Z,86.37
2017-08-25T04:07:31.650Z,86.37
2017-08-25T04:09:59.042Z,86.56
2017-08-25T04:12:26.436Z,86.24
2017-08-25T04:14:53.976Z,86.06
2017-08-25T04:17:21.375Z,85.93
2017-08-25T04:19:48.770Z,85.83
2017-08-25T04:22:16.190Z,85.98
2017-08-25T04:24:43.590Z,86.47
2017-08-25T04:27:10.979Z,86.63
2017-08-25T04:29:38.455Z,86.71
2017-08-25T04:32:05.867Z,86.59
2017-08-25T04:34:33.283Z,86.29
2017-08-25T04:37:00.826Z,86.15
2017-08-25T04:39:28.249Z,86.07
2017-08-25T04:41:55.627Z,85.42
2017-08-25T04:44:23.062Z,85.50
2017-08-25T04:46:50.455Z,85.66
2017-08-25T04:49:17.847Z,85.58
2017-08-25T04:51:45.294Z,85.45
2017-08-25T04:54:12.691Z,85.36
2017-08-25T04:56:40.086Z,85.08
2017-08-25T04:59:07.530Z,84.90
2017-08-25T05:01:34.926Z,85.00
2017-08-25T05:04:02.322Z,84.89
2017-08-25T05:06:29.734Z,84.83
2017-08-25T05:08:57.126Z,84.90
2017-08-25T05:11:24.526Z,84.96
2017-08-25T05:13:51.971Z,84.37
2017-08-25T05:16:19.374Z,83.85
2017-08-25T05:18:46.770Z,83.93
2017-08-25T05:21:14.694Z,83.97
2017-08-25T05:23:42.091Z,84.02
2017-08-25T05:26:09.483Z,83.90
2017-08-25T05:28:37.028Z,83.26
2017-08-25T05:31:04.422Z,82.91
2017-08-25T05:33:31.823Z,82.73
2017-08-25T05:35:59.367Z,82.46
2017-08-25T05:38:26.763Z,82.71
2017-08-25T05:40:54.166Z,82.86
2017-08-25T05:43:21.714Z,83.19
2017-08-25T05:45:49.111Z,83.51
2017-08-25T05:48:16.505Z,83.56
2017-08-25T05:50:44.062Z,83.46
2017-08-25T05:53:11.455Z,83.24
2017-08-25T05:55:38.863Z,83.34
2017-08-25T05:58:06.375Z,83.45
2017-08-25T06:00:33.765Z,83.50
2017-08-25T06:03:01.154Z,83.43
2017-08-25T06:05:28.659Z,83.42
2017-08-25T06:07:56.063Z,83.39
2017-08-25T06:10:23.459Z,83.30
2017-08-25T06:12:50.878Z,83.29
2017-08-25T06:15:18.278Z,82.83
2017-08-25T06:17:45.686Z,82.94
2017-08-25T06:20:13.097Z,83.04
2017-08-25T06:22:40.495Z,82.75
2017-08-25T06:25:07.889Z,80.53
2017-08-25T06:27:35.441Z,80.60
2017-08-25T06:30:03.367Z,80.59
2017-08-25T06:32:30.767Z,80.71
2017-08-25T06:34:58.618Z,80.91
2017-08-25T06:37:26.026Z,81.02
2017-08-25T06:39:53.447Z,79.81
2017-08-25T06:42:21.007Z,77.86
2017-08-25T06:44:48.398Z,78.47
2017-08-25T06:47:15.795Z,77.79
2017-08-25T06:49:43.578Z,78.21
2017-08-25T06:52:10.987Z,78.48
2017-08-25T06:54:38.383Z,78.89
2017-08-25T06:57:05.805Z,79.85
2017-08-25T06:59:33.198Z,79.71
2017-08-25T07:02:00.601Z,79.77
2017-08-25T07:04:28.035Z,80.02
2017-08-25T07:06:55.429Z,80.29
2017-08-25T07:09:22.824Z,78.80
2017-08-25T07:11:50.334Z,77.12
2017-08-25T07:14:17.721Z,76.72
2017-08-25T07:16:45.124Z,77.29
2017-08-25T07:19:12.667Z,77.59
2017-08-25T07:21:40.078Z,77.91
2017-08-25T07:24:07.467Z,77.42
2017-08-25T07:26:35.228Z,78.80
2017-08-25T07:29:02.626Z,79.30
2017-08-25T07:31:30.026Z,78.40
2017-08-25T07:33:57.467Z,76.47
2017-08-25T07:36:24.871Z,75.81
2017-08-25T07:38:52.299Z,75.19
2017-08-25T07:41:19.733Z,75.67
2017-08-25T07:43:47.139Z,75.74
2017-08-25T07:46:14.534Z,75.24
2017-08-25T07:48:42.078Z,77.04
2017-08-25T07:51:09.487Z,76.29
2017-08-25T07:53:36.895Z,75.67
2017-08-25T07:56:04.720Z,73.93
2017-08-25T07:58:32.131Z,74.79
2017-08-25T08:00:59.531Z,73.01
2017-08-25T08:03:26.991Z,72.99
2017-08-25T08:05:54.396Z,73.48
2017-08-25T08:08:21.786Z,72.86
2017-08-25T08:10:49.235Z,72.65
2017-08-25T08:13:16.633Z,71.18
2017-08-25T08:15:44.030Z,69.78
2017-08-25T08:18:11.835Z,69.76
2017-08-25T08:20:39.233Z,71.35
2017-08-25T08:23:06.638Z,71.58
2017-08-25T08:25:34.226Z,70.59
2017-08-25T08:28:01.622Z,70.29
2017-08-25T08:30:29.018Z,69.08
2017-08-25T08:32:56.426Z,70.53
2017-08-25T08:35:23.830Z,70.78
2017-08-25T08:37:51.226Z,72.26
2017-08-25T08:40:18.735Z,68.55
2017-08-25T08:42:46.146Z,67.18
2017-08-25T08:45:13.539Z,67.29
2017-08-25T08:47:40.949Z,66.52
2017-08-25T08:50:08.346Z,68.91
2017-08-25T08:52:35.752Z,68.02
2017-08-25T08:55:03.295Z,67.22
2017-08-25T08:57:30.693Z,65.25
2017-08-25T08:59:58.091Z,65.91
2017-08-25T09:02:25.635Z,65.92
2017-08-25T09:04:53.042Z,66.41
2017-08-25T09:07:20.440Z,66.40
2017-08-25T09:09:47.983Z,66.48
2017-08-25T09:12:15.374Z,66.30
2017-08-25T09:14:42.767Z,64.77
2017-08-25T09:17:10.611Z,64.85
2017-08-25T09:19:37.997Z,66.12
2017-08-25T09:22:05.395Z,61.88
2017-08-25T09:24:32.795Z,60.27
2017-08-25T09:27:00.194Z,57.18
2017-08-25T09:29:27.591Z,59.68
2017-08-25T09:31:55.155Z,56.19
2017-08-25T09:34:22.557Z,59.49
2017-08-25T09:36:49.967Z,56.29
2017-08-25T09:39:17.377Z,54.67
2017-08-25T09:41:44.794Z,53.71
2017-08-25T09:44:12.177Z,54.19
2017-08-25T09:46:40.096Z,52.54
2017-08-25T09:49:07.490Z,52.57
2017-08-25T09:51:34.902Z,51.26
2017-08-25T09:54:02.455Z,49.97
2017-08-25T09:56:30.072Z,48.96
2017-08-25T09:58:57.464Z,51.08
2017-08-25T10:01:24.870Z,50.83
2017-08-25T10:03:52.266Z,46.17
2017-08-25T10:06:19.677Z,50.51
2017-08-25T10:08:47.436Z,48.47
2017-08-25T10:11:14.857Z,49.42
2017-08-25T10:13:42.249Z,46.03
2017-08-25T10:16:09.810Z,50.16
2017-08-25T10:18:37.218Z,49.22
2017-08-25T10:21:04.614Z,50.71
2017-08-25T10:23:32.170Z,45.45
2017-08-25T10:25:59.566Z,44.39
2017-08-25T10:28:26.970Z,49.20
2017-08-25T10:30:54.531Z,42.49
2017-08-25T10:33:33.689Z,46.01
2017-08-25T10:36:12.806Z,45.72
2017-08-25T10:38:51.846Z,41.69
2017-08-25T10:41:31.303Z,42.78
2017-08-25T10:44:10.363Z,44.72
2017-08-25T10:46:37.807Z,41.20
2017-08-25T10:49:05.198Z,42.80
2017-08-25T10:51:32.598Z,42.51
2017-08-25T10:54:00.105Z,40.16
2017-08-25T10:56:27.503Z,41.50
2017-08-25T10:58:54.910Z,40.43
2017-08-25T11:01:22.459Z,37.37
2017-08-25T11:03:49.855Z,39.33
2017-08-25T11:06:17.259Z,40.58
2017-08-25T11:08:44.679Z,43.96
2017-08-25T11:11:12.083Z,39.71
2017-08-25T11:13:39.478Z,40.30
2017-08-25T11:16:07.034Z,41.47
2017-08-25T11:18:34.430Z,39.03
2017-08-25T11:21:01.835Z,39.66
2017-08-25T11:23:29.367Z,39.40
2017-08-25T11:25:56.762Z,39.95
2017-08-25T11:28:24.158Z,41.00
2017-08-25T11:30:51.667Z,39.03
2017-08-25T11:33:19.070Z,42.01
2017-08-25T11:35:46.466Z,39.74
2017-08-25T11:38:14.014Z,39.27
2017-08-25T11:40:41.410Z,40.66
2017-08-25T11:43:08.810Z,38.66
2017-08-25T11:45:36.370Z,39.79
2017-08-25T11:48:03.762Z,39.12
2017-08-25T11:50:31.159Z,40.96
2017-08-25T11:52:58.567Z,41.13
2017-08-25T11:55:26.018Z,42.45
2017-08-25T11:57:53.402Z,38.50
2017-08-25T12:00:20.956Z,39.58
2017-08-25T12:02:48.356Z,39.85
2017-08-25T12:05:15.747Z,40.10
2017-08-25T12:07:43.299Z,41.59
2017-08-25T12:10:10.696Z,37.65
2017-08-25T12:12:38.090Z,42.32
2017-08-25T12:15:05.642Z,41.89
2017-08-25T12:17:33.039Z,43.00
2017-08-25T12:20:00.433Z,45.86
2017-08-25T12:22:28.079Z,45.17
2017-08-25T12:24:55.473Z,45.85
2017-08-25T12:27:22.866Z,42.79
2017-08-25T12:29:50.377Z,45.00
2017-08-25T12:32:17.791Z,43.29
2017-08-25T12:34:45.184Z,44.54
2017-08-25T12:37:13.034Z,44.79
2017-08-25T12:39:40.431Z,43.55
2017-08-25T12:42:07.826Z,44.67
2017-08-25T12:44:35.602Z,41.85
2017-08-25T12:47:02.998Z,44.70
2017-08-25T12:49:30.395Z,46.57
2017-08-25T12:51:57.838Z,44.58
2017-08-25T12:54:25.234Z,43.77
2017-08-25T12:56:52.625Z,42.54
2017-08-25T12:59:20.048Z,43.78
2017-08-25T13:01:47.452Z,43.51
2017-08-25T13:04:14.831Z,41.84
2017-08-25T13:06:42.386Z,45.00
2017-08-25T13:09:09.775Z,42.65
2017-08-25T13:11:37.171Z,42.89
2017-08-25T13:14:04.895Z,40.98
2017-08-25T13:16:32.295Z,41.91
2017-08-25T13:18:59.686Z,44.62
2017-08-25T13:21:27.274Z,42.41
2017-08-25T13:23:54.673Z,43.40
2017-08-25T13:26:22.063Z,45.70
2017-08-25T13:28:49.619Z,40.69
2017-08-25T13:31:17.014Z,42.42
2017-08-25T13:33:44.414Z,42.92
2017-08-25T13:36:11.923Z,45.12
2017-08-25T13:38:39.326Z,42.93
2017-08-25T13:41:06.715Z,43.54
2017-08-25T13:43:34.158Z,45.14
2017-08-25T13:46:01.554Z,45.69
2017-08-25T13:48:28.950Z,46.36
2017-08-25T13:50:56.698Z,44.90
2017-08-25T13:53:24.090Z,44.76
2017-08-25T13:55:51.496Z,45.54
2017-08-25T13:58:19.012Z,47.66
2017-08-25T14:00:46.401Z,50.13
2017-08-25T14:03:13.802Z,46.23
2017-08-25T14:05:41.501Z,46.44
2017-08-25T14:08:08.890Z,46.10
2017-08-25T14:10:36.287Z,44.74
2017-08-25T14:13:04.027Z,48.44
2017-08-25T14:15:31.429Z,48.93
2017-08-25T14:17:58.828Z,51.52
2017-08-25T14:20:26.375Z,48.46
2017-08-25T14:22:53.778Z,46.70
2017-08-25T14:25:21.174Z,48.95
2017-08-25T14:27:48.595Z,48.15
2017-08-25T14:30:15.986Z,44.40
2017-08-25T14:32:43.381Z,46.35
2017-08-25T14:35:10.811Z,47.79
2017-08-25T14:37:38.209Z,47.58
2017-08-25T14:40:05.603Z,45.41
2017-08-25T14:42:33.977Z,47.47
2017-08-25T14:45:01.380Z,50.67
2017-08-25T14:47:28.770Z,49.27
2017-08-25T14:49:56.324Z,51.40
2017-08-25T14:52:23.718Z,49.12
2017-08-25T14:54:51.114Z,49.81
2017-08-25T14:57:18.524Z,51.72
2017-08-25T14:59:45.920Z,51.33
2017-08-25T15:02:13.327Z,52.16
2017-08-25T15:04:40.742Z,53.20
2017-08-25T15:07:08.142Z,54.16
2017-08-25T15:09:35.543Z,52.77
2017-08-25T15:12:03.459Z,50.71
2017-08-25T15:14:30.856Z,49.85
2017-08-25T15:16:58.259Z,50.78
2017-08-25T15:19:25.810Z,49.42
2017-08-25T15:21:53.200Z,50.15
2017-08-25T15:24:20.602Z,49.88
2017-08-25T15:26:48.139Z,50.21
2017-08-25T15:29:15.540Z,50.31
2017-08-25T15:31:42.939Z,49.29
2017-08-25T15:34:10.487Z,51.16
2017-08-25T15:36:37.894Z,50.66
2017-08-25T15:39:05.287Z,50.60
2017-08-25T15:41:33.155Z,50.86
2017-08-25T15:44:00.555Z,49.09
2017-08-25T15:46:27.946Z,53.20
2017-08-25T15:48:55.350Z,52.20
2017-08-25T15:51:22.785Z,50.30
2017-08-25T15:53:50.158Z,49.00
2017-08-25T15:56:17.563Z,51.38
2017-08-25T15:58:44.960Z,50.19
2017-08-25T16:01:12.357Z,53.21
2017-08-25T16:03:39.899Z,54.45
2017-08-25T16:06:07.298Z,54.32
2017-08-25T16:08:34.695Z,54.19
2017-08-25T16:11:02.102Z,51.15
2017-08-25T16:13:29.509Z,51.76
2017-08-25T16:15:56.903Z,52.31
2017-08-25T16:18:24.454Z,53.83
2017-08-25T16:20:51.852Z,54.83
2017-08-25T16:23:19.275Z,55.08
2017-08-25T16:25:47.182Z,56.96
2017-08-25T16:28:14.603Z,58.26
2017-08-25T16:30:42.018Z,58.91
2017-08-25T16:33:09.582Z,59.45
2017-08-25T16:35:36.984Z,56.77
2017-08-25T16:38:04.383Z,56.18
2017-08-25T16:40:31.804Z,54.91
2017-08-25T16:42:59.198Z,55.60
2017-08-25T16:45:26.595Z,56.37
2017-08-25T16:47:54.166Z,55.56
2017-08-25T16:50:21.566Z,56.57
2017-08-25T16:52:48.967Z,57.42
2017-08-25T16:55:16.408Z,55.21
2017-08-25T16:57:43.807Z,56.46
2017-08-25T17:00:11.202Z,56.71
2017-08-25T17:02:38.746Z,56.56
2017-08-25T17:05:06.147Z,56.84
2017-08-25T17:07:33.545Z,57.28
2017-08-25T17:10:01.064Z,55.67
2017-08-25T17:12:28.461Z,56.21
2017-08-25T17:14:55.860Z,56.84
2017-08-25T17:17:23.410Z,58.66
2017-08-25T17:19:50.806Z,58.17
2017-08-25T17:22:18.215Z,58.75
2017-08-25T17:24:45.731Z,58.89
2017-08-25T17:27:13.126Z,60.04
2017-08-25T17:29:40.514Z,58.42
2017-08-25T17:32:07.935Z,59.04
2017-08-25T17:34:35.329Z,60.47
2017-08-25T17:37:02.731Z,59.15
2017-08-25T17:39:30.180Z,60.39
2017-08-25T17:41:57.570Z,62.76
2017-08-25T17:44:24.966Z,63.33
2017-08-25T17:46:52.867Z,63.13
2017-08-25T17:49:20.272Z,63.11
2017-08-25T17:51:47.667Z,63.33
2017-08-25T17:54:15.374Z,60.55
2017-08-25T17:56:42.770Z,61.94
2017-08-25T17:59:10.168Z,63.01
2017-08-25T18:01:37.606Z,64.03
2017-08-25T18:04:05.002Z,64.50
2017-08-25T18:06:32.399Z,65.11
2017-08-25T18:08:59.959Z,65.45
2017-08-25T18:11:27.356Z,65.49
2017-08-25T18:13:54.751Z,65.53
2017-08-25T18:16:22.302Z,65.95
2017-08-25T18:18:49.718Z,66.62
2017-08-25T18:21:17.116Z,66.78
2017-08-25T18:23:44.544Z,66.19
2017-08-25T18:26:11.934Z,65.14
2017-08-25T18:28:39.338Z,65.89
2017-08-25T18:31:06.757Z,66.51
2017-08-25T18:33:34.150Z,66.46
2017-08-25T18:36:01.551Z,67.05
2017-08-25T18:38:29.050Z,68.13
2017-08-25T18:40:56.450Z,68.85
2017-08-25T18:43:23.844Z,69.10
2017-08-25T18:45:51.587Z,69.51
2017-08-25T18:48:18.982Z,69.44
2017-08-25T18:50:46.378Z,70.20
2017-08-25T18:53:13.823Z,70.34
2017-08-25T18:55:41.219Z,70.71
2017-08-25T18:58:08.616Z,70.75
2017-08-25T19:00:36.175Z,70.99
2017-08-25T19:03:03.597Z,70.99
2017-08-25T19:05:31.011Z,71.16
2017-08-25T19:07:58.572Z,71.78
2017-08-25T19:10:25.967Z,71.92
2017-08-25T19:12:53.375Z,72.00
2017-08-25T19:15:21.134Z,72.33
2017-08-25T19:17:48.529Z,72.45
2017-08-25T19:20:15.939Z,72.48
2017-08-25T19:22:43.482Z,72.68
2017-08-25T19:25:10.882Z,72.67
2017-08-25T19:27:38.271Z,72.54
2017-08-25T19:30:05.715Z,72.63
2017-08-25T19:32:33.106Z,72.90
2017-08-25T19:35:00.502Z,72.92
2017-08-25T19:37:28.046Z,73.14
2017-08-25T19:39:55.450Z,73.04
2017-08-25T19:42:22.850Z,73.32
2017-08-25T19:44:50.258Z,73.44
2017-08-25T19:47:17.657Z,73.24
2017-08-25T19:49:45.050Z,73.75
2017-08-25T19:52:12.629Z,73.54
2017-08-25T19:54:40.018Z,73.42
2017-08-25T19:57:07.410Z,73.76
2017-08-25T19:59:35.162Z,74.03
2017-08-25T20:02:02.562Z,74.04
2017-08-25T20:04:29.960Z,74.03
2017-08-25T20:06:57.375Z,73.96
2017-08-25T20:09:24.775Z,74.00
2017-08-25T20:11:52.174Z,73.81
2017-08-25T20:14:19.582Z,73.87
2017-08-25T20:16:46.978Z,74.08
2017-08-25T20:19:14.384Z,74.03
2017-08-25T20:21:41.924Z,73.89
2017-08-25T20:24:09.331Z,73.99
2017-08-25T20:26:36.745Z,73.87
2017-08-25T20:29:04.159Z,74.36
2017-08-25T20:31:31.554Z,74.53
2017-08-25T20:33:58.950Z,74.67
2017-08-25T20:36:26.370Z,74.72
2017-08-25T20:38:53.766Z,75.08
2017-08-25T20:41:21.171Z,75.31
2017-08-25T20:43:48.713Z,75.55
2017-08-25T20:46:16.128Z,75.48
2017-08-25T20:48:43.545Z,75.57
2017-08-25T20:51:11.043Z,75.47
2017-08-25T20:53:38.440Z,75.44
2017-08-25T20:56:05.834Z,75.41
2017-08-25T20:58:33.387Z,75.71
2017-08-25T21:01:00.783Z,75.65
2017-08-25T21:03:28.186Z,76.24
2017-08-25T21:05:55.730Z,76.17
2017-08-25T21:08:23.134Z,76.35
2017-08-25T21:10:50.530Z,76.44
2017-08-25T21:13:18.679Z,76.85
2017-08-25T21:15:46.106Z,76.75
2017-08-25T21:18:13.507Z,76.53
2017-08-25T21:20:40.943Z,76.75
2017-08-25T21:23:08.347Z,76.36
2017-08-25T21:25:35.746Z,75.87
2017-08-25T21:28:03.304Z,75.95
2017-08-25T21:30:30.726Z,76.06
2017-08-25T21:32:58.161Z,75.78
2017-08-25T21:35:25.602Z,75.48
2017-08-25T21:37:52.999Z,75.70
2017-08-25T21:40:20.394Z,75.49
2017-08-25T21:42:47.940Z,75.68
2017-08-25T21:45:15.363Z,75.56
2017-08-25T21:47:42.771Z,75.52
2017-08-25T21:50:10.346Z,75.69
2017-08-25T21:52:37.751Z,74.94
2017-08-25T21:55:05.152Z,75.06
2017-08-25T21:57:32.704Z,76.05
2017-08-25T22:00:00.109Z,76.92
2017-08-25T22:02:27.507Z,77.54
2017-08-25T22:04:55.294Z,77.74
2017-08-25T22:07:22.699Z,78.08
2017-08-25T22:09:50.143Z,78.44
2017-08-25T22:12:17.558Z,78.76
2017-08-25T22:14:44.973Z,79.22
2017-08-25T22:17:12.379Z,80.04
2017-08-25T22:19:39.892Z,80.73
2017-08-25T22:22:07.286Z,81.10
2017-08-25T22:24:34.727Z,81.52
2017-08-25T22:27:02.312Z,81.65
2017-08-25T22:29:29.704Z,81.88
2017-08-25T22:31:57.355Z,82.16
2017-08-25T22:34:24.898Z,82.13
2017-08-25T22:36:52.308Z,82.28
2017-08-25T22:39:19.714Z,82.46
2017-08-25T22:41:47.568Z,82.68
2017-08-25T22:44:14.966Z,82.94
2017-08-25T22:46:42.378Z,82.72
2017-08-25T22:49:09.926Z,82.59
2017-08-25T22:51:37.330Z,82.71
2017-08-25T22:54:04.730Z,82.92
2017-08-25T22:56:32.232Z,83.22
2017-08-25T22:58:59.630Z,83.22
2017-08-25T23:01:27.027Z,83.38
2017-08-25T23:03:54.524Z,83.23
2017-08-25T23:06:21.938Z,83.48
2017-08-25T23:08:49.335Z,83.76
2017-08-25T23:11:16.770Z,84.13
2017-08-25T23:13:44.201Z,83.95
2017-08-25T23:16:11.599Z,84.22
2017-08-25T23:18:39.014Z,84.29
2017-08-25T23:21:06.410Z,84.56
2017-08-25T23:23:33.806Z,83.98
2017-08-25T23:26:01.355Z,84.01
2017-08-25T23:28:28.762Z,84.57
2017-08-25T23:30:56.163Z,84.57
2017-08-25T23:33:23.666Z,85.12
2017-08-25T23:35:51.074Z,85.38
2017-08-25T23:38:18.467Z,85.84
2017-08-25T23:40:45.903Z,85.84
2017-08-25T23:43:13.310Z,85.73
2017-08-25T23:45:41.419Z,85.60
2017-08-25T23:48:08.964Z,85.62
2017-08-25T23:50:36.366Z,85.65
2017-08-25T23:53:04.220Z,85.68
2017-08-25T23:55:31.645Z,85.70
2017-08-25T23:57:59.055Z,85.69
